createdAt,value
2022-08-20T00:04:03.578Z,25.32
2022-08-20T00:10:23.869Z,25.28
2022-08-20T00:16:48.256Z,25.27
2022-08-20T00:23:12.544Z,25.26
2022-08-20T00:29:22.579Z,25.23
2022-08-20T00:35:44.139Z,25.16
2022-08-20T00:42:08.512Z,25.11
2022-08-20T00:48:25.799Z,25.05
2022-08-20T00:54:51.506Z,24.99
2022-08-20T01:01:16.527Z,24.96
2022-08-20T01:07:39.697Z,24.90
2022-08-20T01:14:02.549Z,24.88
2022-08-20T01:20:32.432Z,24.87
2022-08-20T01:27:08.403Z,24.86
2022-08-20T01:33:25.573Z,24.82
2022-08-20T01:39:43.788Z,24.87
2022-08-20T01:46:08.205Z,24.93
2022-08-20T01:52:28.020Z,24.97
2022-08-20T01:58:56.068Z,24.98
2022-08-20T02:05:16.243Z,24.94
2022-08-20T02:11:40.791Z,24.87
2022-08-20T02:18:05.562Z,24.79
2022-08-20T02:24:32.459Z,24.71
2022-08-20T02:30:56.784Z,24.66
2022-08-20T02:37:21.030Z,24.63
2022-08-20T02:43:38.336Z,24.59
2022-08-20T02:49:55.598Z,24.56
2022-08-20T02:56:12.326Z,24.56
2022-08-20T03:02:36.522Z,24.64
2022-08-20T03:08:46.137Z,24.67
2022-08-20T03:15:03.230Z,24.65
2022-08-20T03:21:27.284Z,24.61
2022-08-20T03:27:43.099Z,24.59
2022-08-20T03:34:09.522Z,24.54
2022-08-20T03:40:33.829Z,24.50
2022-08-20T03:46:58.245Z,24.49
2022-08-20T03:53:22.443Z,24.59
2022-08-20T03:59:46.639Z,24.61
2022-08-20T04:06:18.934Z,24.60
2022-08-20T04:12:35.789Z,24.58
2022-08-20T04:19:01.578Z,24.57
2022-08-20T04:25:18.689Z,24.52
2022-08-20T04:31:41.276Z,24.46
2022-08-20T04:38:04.595Z,24.44
2022-08-20T04:44:28.811Z,24.51
2022-08-20T04:50:50.469Z,24.54
2022-08-20T04:57:12.319Z,24.56
2022-08-20T05:03:30.458Z,24.58
2022-08-20T05:09:44.134Z,24.60
2022-08-20T05:16:01.102Z,24.64
2022-08-20T05:22:18.091Z,24.61
2022-08-20T05:28:54.427Z,24.54
2022-08-20T05:35:23.099Z,24.47
2022-08-20T05:41:47.335Z,24.38
2022-08-20T05:48:11.636Z,24.40
2022-08-20T05:54:34.702Z,24.44
2022-08-20T06:00:58.359Z,24.54
2022-08-20T06:07:21.467Z,24.66
2022-08-20T06:13:45.862Z,24.74
2022-08-20T06:20:11.883Z,24.78
2022-08-20T06:26:38.793Z,24.82
2022-08-20T06:32:57.362Z,24.84
2022-08-20T06:39:23.702Z,24.87
2022-08-20T06:45:48.098Z,24.89
2022-08-20T06:52:15.532Z,24.91
2022-08-20T06:58:36.361Z,24.94
2022-08-20T07:05:04.638Z,24.99
2022-08-20T07:11:28.656Z,25.03
2022-08-20T07:17:56.399Z,25.08
2022-08-20T07:24:23.095Z,25.14
2022-08-20T07:30:55.801Z,25.27
2022-08-20T07:37:21.419Z,25.35
2022-08-20T07:43:18.984Z,25.38
2022-08-20T07:49:39.796Z,25.38
2022-08-20T07:56:04.046Z,25.36
2022-08-20T08:02:28.428Z,25.35
2022-08-20T08:08:52.970Z,25.35
2022-08-20T08:15:23.728Z,25.38
2022-08-20T08:21:54.481Z,25.41
2022-08-20T08:28:04.066Z,25.44
2022-08-20T08:34:24.249Z,25.47
2022-08-20T08:40:47.178Z,25.52
2022-08-20T08:47:15.022Z,25.56
2022-08-20T08:53:32.404Z,25.59
2022-08-20T09:00:03.893Z,25.61
2022-08-20T09:06:31.439Z,25.64
2022-08-20T09:12:47.769Z,25.67
2022-08-20T09:19:12.385Z,25.70
2022-08-20T09:25:36.699Z,25.72
2022-08-20T09:32:01.005Z,25.75
2022-08-20T09:38:26.797Z,25.76
2022-08-20T09:44:43.701Z,25.78
2022-08-20T09:50:47.892Z,25.79
2022-08-20T09:57:12.106Z,25.80
2022-08-20T10:03:36.325Z,25.82
2022-08-20T10:10:06.339Z,25.83
2022-08-20T10:16:23.404Z,25.87
2022-08-20T10:22:36.057Z,25.90
2022-08-20T10:28:43.174Z,25.93
2022-08-20T10:35:00.255Z,25.97
2022-08-20T10:41:24.961Z,25.99
2022-08-20T10:47:56.136Z,26.02
2022-08-20T10:54:19.464Z,26.04
2022-08-20T11:00:36.554Z,26.07
2022-08-20T11:07:00.983Z,26.10
2022-08-20T11:13:25.478Z,26.12
2022-08-20T11:19:50.115Z,26.15
2022-08-20T11:26:14.343Z,26.16
2022-08-20T11:32:37.585Z,26.13
2022-08-20T11:38:42.838Z,26.13
2022-08-20T11:45:07.040Z,26.20
2022-08-20T11:51:31.266Z,26.23
2022-08-20T11:58:06.175Z,26.22
2022-08-20T12:04:28.788Z,26.20
2022-08-20T12:10:50.749Z,26.17
2022-08-20T12:17:00.553Z,26.15
2022-08-20T12:23:23.616Z,26.21
2022-08-20T12:29:40.921Z,26.25
2022-08-20T12:35:46.688Z,26.25
2022-08-20T12:41:52.024Z,26.24
2022-08-20T12:48:18.068Z,26.24
2022-08-20T12:54:42.355Z,26.24
2022-08-20T13:01:01.575Z,26.21
2022-08-20T13:07:16.155Z,26.23
2022-08-20T13:13:13.800Z,26.36
2022-08-20T13:19:26.887Z,26.45
2022-08-20T13:25:49.956Z,26.52
2022-08-20T13:32:06.875Z,26.58
2022-08-20T13:38:02.073Z,26.64
2022-08-20T13:44:33.287Z,26.70
2022-08-20T13:50:49.604Z,26.84
2022-08-20T13:57:06.812Z,26.93
2022-08-20T14:03:13.892Z,26.96
2022-08-20T14:09:38.179Z,26.97
2022-08-20T14:15:55.216Z,26.99
2022-08-20T14:22:04.532Z,27.00
2022-08-20T14:28:27.996Z,27.03
2022-08-20T14:34:36.301Z,27.02
2022-08-20T14:41:00.977Z,27.02
2022-08-20T14:47:17.106Z,27.03
2022-08-20T14:53:41.790Z,27.12
2022-08-20T14:59:56.215Z,27.16
2022-08-20T15:06:21.945Z,27.16
2022-08-20T15:12:30.232Z,27.16
2022-08-20T15:18:54.145Z,27.16
2022-08-20T15:25:16.545Z,27.18
2022-08-20T15:31:33.830Z,27.20
2022-08-20T15:37:50.758Z,27.15
2022-08-20T15:44:07.442Z,27.07
2022-08-20T15:50:13.917Z,27.11
2022-08-20T15:55:58.593Z,27.24
2022-08-20T16:02:09.194Z,27.31
2022-08-20T16:08:07.195Z,27.34
2022-08-20T16:14:14.663Z,27.36
2022-08-20T16:20:39.020Z,27.35
2022-08-20T16:26:47.680Z,27.32
2022-08-20T16:33:11.502Z,27.29
2022-08-20T16:39:19.232Z,27.25
2022-08-20T16:45:23.510Z,27.20
2022-08-20T16:51:52.399Z,27.14
2022-08-20T16:57:59.562Z,27.09
2022-08-20T17:04:16.822Z,27.04
2022-08-20T17:10:03.955Z,26.98
2022-08-20T17:16:03.613Z,26.92
2022-08-20T17:22:07.888Z,26.88
2022-08-20T17:28:35.432Z,26.83
2022-08-20T17:34:40.095Z,26.80
2022-08-20T17:40:59.691Z,26.77
2022-08-20T17:47:23.911Z,26.68
2022-08-20T17:53:57.338Z,26.55
2022-08-20T18:00:24.388Z,26.44
2022-08-20T18:06:30.694Z,26.35
2022-08-20T18:12:50.922Z,26.28
2022-08-20T18:18:57.718Z,26.21
2022-08-20T18:25:06.517Z,26.12
2022-08-20T18:31:09.231Z,26.09
2022-08-20T18:37:12.417Z,26.05
2022-08-20T18:43:16.648Z,26.01
2022-08-20T18:49:20.653Z,25.98
2022-08-20T18:55:24.593Z,25.95
2022-08-20T19:01:30.325Z,25.90
2022-08-20T19:07:27.497Z,25.86
2022-08-20T19:13:57.915Z,25.82
2022-08-20T19:20:01.976Z,25.77
2022-08-20T19:26:04.475Z,25.72
2022-08-20T19:32:09.245Z,25.67
2022-08-20T19:38:09.686Z,25.65
2022-08-20T19:44:12.459Z,25.63
2022-08-20T19:50:18.300Z,25.59
2022-08-20T19:56:23.546Z,25.54
2022-08-20T20:02:35.524Z,25.48
2022-08-20T20:08:39.572Z,25.44
2022-08-20T20:14:43.501Z,25.40
2022-08-20T20:21:05.735Z,25.36
2022-08-20T20:27:14.795Z,25.28
2022-08-20T20:33:24.063Z,25.15
2022-08-20T20:39:40.238Z,25.11
2022-08-20T20:45:44.434Z,25.04
2022-08-20T20:51:57.341Z,25.03
2022-08-20T20:58:04.264Z,25.02
2022-08-20T21:04:09.567Z,25.01
2022-08-20T21:10:06.190Z,25.01
2022-08-20T21:16:13.422Z,25.00
2022-08-20T21:22:19.639Z,24.98
2022-08-20T21:28:28.410Z,24.93
2022-08-20T21:34:33.513Z,24.90
2022-08-20T21:40:37.014Z,24.76
2022-08-20T21:46:41.104Z,24.41
2022-08-20T21:52:55.250Z,24.15
2022-08-20T21:59:03.587Z,23.97
2022-08-20T22:05:07.517Z,23.90
2022-08-20T22:11:11.367Z,23.91
2022-08-20T22:17:15.379Z,24.02
2022-08-20T22:23:19.576Z,24.17
2022-08-20T22:29:23.635Z,24.21
2022-08-20T22:35:26.263Z,24.15
2022-08-20T22:41:30.054Z,24.07
2022-08-20T22:47:34.219Z,24.01
2022-08-20T22:53:38.099Z,23.90
2022-08-20T22:59:41.436Z,23.82
2022-08-20T23:06:05.178Z,23.77
2022-08-20T23:12:11.327Z,23.73
2022-08-20T23:18:18.011Z,23.69
2022-08-20T23:24:24.255Z,23.63
2022-08-20T23:30:38.468Z,23.56
2022-08-20T23:36:44.004Z,23.50
2022-08-20T23:42:40.710Z,23.47
2022-08-20T23:48:44.646Z,23.47
2022-08-20T23:54:48.651Z,23.56
